sensor_id;sensor_type;location;lat;lon;timestamp;P1;durP1;ratioP1;P2;durP2;ratioP2
30472;SDS011;17263;48.160;11.452;2023-04-01T00:00:53;2.73;;;1.17;;
30472;SDS011;17263;48.160;11.452;2023-04-01T00:03:21;1.97;;;0.60;;
30472;SDS011;17263;48.160;11.452;2023-04-01T00:05:48;1.27;;;0.70;;
30472;SDS011;17263;48.160;11.452;2023-04-01T00:08:15;2.47;;;0.60;;
30472;SDS011;17263;48.160;11.452;2023-04-01T00:10:41;2.37;;;0.87;;
30472;SDS011;17263;48.160;11.452;2023-04-01T00:13:07;1.80;;;0.60;;
30472;SDS011;17263;48.160;11.452;2023-04-01T00:15:34;0.73;;;0.50;;
30472;SDS011;17263;48.160;11.452;2023-04-01T00:18:00;1.73;;;0.70;;
30472;SDS011;17263;48.160;11.452;2023-04-01T00:20:27;2.93;;;1.00;;
30472;SDS011;17263;48.160;11.452;2023-04-01T00:22:53;3.10;;;0.90;;
30472;SDS011;17263;48.160;11.452;2023-04-01T00:25:20;1.70;;;0.70;;
30472;SDS011;17263;48.160;11.452;2023-04-01T00:27:47;1.43;;;0.70;;
30472;SDS011;17263;48.160;11.452;2023-04-01T00:30:13;1.23;;;0.80;;
30472;SDS011;17263;48.160;11.452;2023-04-01T00:32:39;2.07;;;0.90;;
30472;SDS011;17263;48.160;11.452;2023-04-01T00:35:06;2.23;;;1.00;;
30472;SDS011;17263;48.160;11.452;2023-04-01T00:37:34;1.53;;;0.80;;
30472;SDS011;17263;48.160;11.452;2023-04-01T00:40:01;1.67;;;0.80;;
30472;SDS011;17263;48.160;11.452;2023-04-01T00:42:27;1.83;;;0.67;;
30472;SDS011;17263;48.160;11.452;2023-04-01T00:44:54;2.67;;;0.80;;
30472;SDS011;17263;48.160;11.452;2023-04-01T00:47:21;1.23;;;0.80;;
30472;SDS011;17263;48.160;11.452;2023-04-01T00:49:50;1.97;;;0.80;;
30472;SDS011;17263;48.160;11.452;2023-04-01T00:52:19;1.90;;;0.90;;
30472;SDS011;17263;48.160;11.452;2023-04-01T00:54:49;2.67;;;0.87;;
30472;SDS011;17263;48.160;11.452;2023-04-01T00:57:28;2.07;;;0.80;;
30472;SDS011;17263;48.160;11.452;2023-04-01T00:59:58;1.33;;;0.80;;
30472;SDS011;17263;48.160;11.452;2023-04-01T01:02:24;1.40;;;0.83;;
30472;SDS011;17263;48.160;11.452;2023-04-01T01:04:51;1.53;;;0.73;;
30472;SDS011;17263;48.160;11.452;2023-04-01T01:10:03;3.33;;;1.00;;
30472;SDS011;17263;48.160;11.452;2023-04-01T01:12:41;2.07;;;0.90;;
30472;SDS011;17263;48.160;11.452;2023-04-01T01:18:19;2.53;;;0.97;;
30472;SDS011;17263;48.160;11.452;2023-04-01T01:21:03;2.20;;;0.80;;
30472;SDS011;17263;48.160;11.452;2023-04-01T01:35:14;1.60;;;0.97;;
30472;SDS011;17263;48.160;11.452;2023-04-01T01:37:53;2.67;;;0.87;;
30472;SDS011;17263;48.160;11.452;2023-04-01T01:40:29;1.47;;;1.00;;
30472;SDS011;17263;48.160;11.452;2023-04-01T01:42:58;1.20;;;0.70;;
30472;SDS011;17263;48.160;11.452;2023-04-01T01:45:29;3.40;;;0.87;;
30472;SDS011;17263;48.160;11.452;2023-04-01T01:47:59;1.23;;;0.60;;
30472;SDS011;17263;48.160;11.452;2023-04-01T01:50:27;2.37;;;0.83;;
30472;SDS011;17263;48.160;11.452;2023-04-01T01:53:07;3.93;;;0.90;;
30472;SDS011;17263;48.160;11.452;2023-04-01T01:55:36;2.00;;;1.07;;
30472;SDS011;17263;48.160;11.452;2023-04-01T01:58:14;2.47;;;0.90;;
30472;SDS011;17263;48.160;11.452;2023-04-01T02:00:50;3.30;;;0.80;;
30472;SDS011;17263;48.160;11.452;2023-04-01T02:03:29;1.73;;;0.80;;
30472;SDS011;17263;48.160;11.452;2023-04-01T02:05:59;3.03;;;0.90;;
30472;SDS011;17263;48.160;11.452;2023-04-01T02:08:39;1.87;;;0.80;;
30472;SDS011;17263;48.160;11.452;2023-04-01T02:11:11;1.67;;;0.83;;
30472;SDS011;17263;48.160;11.452;2023-04-01T02:13:42;1.50;;;0.60;;
30472;SDS011;17263;48.160;11.452;2023-04-01T02:16:15;1.00;;;0.67;;
30472;SDS011;17263;48.160;11.452;2023-04-01T02:18:46;0.50;;;0.40;;
30472;SDS011;17263;48.160;11.452;2023-04-01T02:21:14;2.07;;;0.60;;
30472;SDS011;17263;48.160;11.452;2023-04-01T02:23:43;1.17;;;0.40;;
30472;SDS011;17263;48.160;11.452;2023-04-01T02:26:10;1.37;;;0.50;;
30472;SDS011;17263;48.160;11.452;2023-04-01T02:28:38;1.97;;;0.70;;
30472;SDS011;17263;48.160;11.452;2023-04-01T02:31:06;1.23;;;0.50;;
30472;SDS011;17263;48.160;11.452;2023-04-01T02:33:35;1.50;;;0.53;;
30472;SDS011;17263;48.160;11.452;2023-04-01T02:36:03;0.70;;;0.60;;
30472;SDS011;17263;48.160;11.452;2023-04-01T02:38:29;1.07;;;0.40;;
30472;SDS011;17263;48.160;11.452;2023-04-01T02:41:00;2.03;;;0.70;;
30472;SDS011;17263;48.160;11.452;2023-04-01T02:43:27;1.27;;;0.50;;
30472;SDS011;17263;48.160;11.452;2023-04-01T02:45:54;1.33;;;0.60;;
30472;SDS011;17263;48.160;11.452;2023-04-01T02:48:20;1.53;;;0.90;;
30472;SDS011;17263;48.160;11.452;2023-04-01T02:50:46;0.77;;;0.50;;
30472;SDS011;17263;48.160;11.452;2023-04-01T02:53:12;1.00;;;0.53;;
30472;SDS011;17263;48.160;11.452;2023-04-01T02:55:38;1.73;;;0.53;;
30472;SDS011;17263;48.160;11.452;2023-04-01T02:58:04;0.87;;;0.57;;
30472;SDS011;17263;48.160;11.452;2023-04-01T03:00:30;1.13;;;0.37;;
30472;SDS011;17263;48.160;11.452;2023-04-01T03:02:56;0.83;;;0.63;;
30472;SDS011;17263;48.160;11.452;2023-04-01T03:05:23;0.77;;;0.30;;
30472;SDS011;17263;48.160;11.452;2023-04-01T03:07:49;2.67;;;0.60;;
30472;SDS011;17263;48.160;11.452;2023-04-01T03:10:15;0.40;;;0.33;;
30472;SDS011;17263;48.160;11.452;2023-04-01T03:12:41;1.33;;;0.40;;
30472;SDS011;17263;48.160;11.452;2023-04-01T03:15:09;1.10;;;0.50;;
30472;SDS011;17263;48.160;11.452;2023-04-01T03:17:37;1.70;;;0.30;;
30472;SDS011;17263;48.160;11.452;2023-04-01T03:20:04;0.87;;;0.47;;
30472;SDS011;17263;48.160;11.452;2023-04-01T03:22:30;0.67;;;0.30;;
30472;SDS011;17263;48.160;11.452;2023-04-01T03:24:56;0.73;;;0.20;;
30472;SDS011;17263;48.160;11.452;2023-04-01T03:27:23;0.40;;;0.20;;
30472;SDS011;17263;48.160;11.452;2023-04-01T03:29:49;0.20;;;0.20;;
30472;SDS011;17263;48.160;11.452;2023-04-01T03:32:15;0.57;;;0.30;;
30472;SDS011;17263;48.160;11.452;2023-04-01T03:34:41;0.20;;;0.20;;
30472;SDS011;17263;48.160;11.452;2023-04-01T03:37:07;0.40;;;0.30;;
30472;SDS011;17263;48.160;11.452;2023-04-01T03:39:33;0.40;;;0.33;;
30472;SDS011;17263;48.160;11.452;2023-04-01T03:42:00;0.57;;;0.40;;
30472;SDS011;17263;48.160;11.452;2023-04-01T03:44:29;0.67;;;0.30;;
30472;SDS011;17263;48.160;11.452;2023-04-01T03:46:56;0.20;;;0.20;;
30472;SDS011;17263;48.160;11.452;2023-04-01T03:49:22;0.60;;;0.30;;
30472;SDS011;17263;48.160;11.452;2023-04-01T03:51:48;1.00;;;0.30;;
30472;SDS011;17263;48.160;11.452;2023-04-01T03:54:14;0.37;;;0.20;;
30472;SDS011;17263;48.160;11.452;2023-04-01T03:56:41;2.03;;;0.47;;
30472;SDS011;17263;48.160;11.452;2023-04-01T03:59:07;1.93;;;0.53;;
30472;SDS011;17263;48.160;11.452;2023-04-01T04:01:34;0.90;;;0.43;;
30472;SDS011;17263;48.160;11.452;2023-04-01T04:04:00;0.57;;;0.30;;
30472;SDS011;17263;48.160;11.452;2023-04-01T04:06:26;2.17;;;0.70;;
30472;SDS011;17263;48.160;11.452;2023-04-01T04:08:53;1.23;;;0.33;;
30472;SDS011;17263;48.160;11.452;2023-04-01T04:11:19;0.67;;;0.43;;
30472;SDS011;17263;48.160;11.452;2023-04-01T04:13:46;1.30;;;0.40;;
30472;SDS011;17263;48.160;11.452;2023-04-01T04:16:16;1.30;;;0.47;;
30472;SDS011;17263;48.160;11.452;2023-04-01T04:18:42;1.63;;;0.50;;
30472;SDS011;17263;48.160;11.452;2023-04-01T04:21:11;1.50;;;0.60;;
30472;SDS011;17263;48.160;11.452;2023-04-01T04:23:39;1.77;;;0.70;;
30472;SDS011;17263;48.160;11.452;2023-04-01T04:26:06;5.40;;;0.73;;
30472;SDS011;17263;48.160;11.452;2023-04-01T04:28:33;2.77;;;0.60;;
30472;SDS011;17263;48.160;11.452;2023-04-01T04:31:00;1.60;;;0.90;;
30472;SDS011;17263;48.160;11.452;2023-04-01T04:33:26;0.63;;;0.60;;
30472;SDS011;17263;48.160;11.452;2023-04-01T04:35:54;1.03;;;0.63;;
30472;SDS011;17263;48.160;11.452;2023-04-01T04:38:21;2.40;;;1.10;;
30472;SDS011;17263;48.160;11.452;2023-04-01T04:40:47;2.00;;;1.03;;
30472;SDS011;17263;48.160;11.452;2023-04-01T04:43:14;1.80;;;0.73;;
30472;SDS011;17263;48.160;11.452;2023-04-01T04:45:42;2.13;;;0.80;;
30472;SDS011;17263;48.160;11.452;2023-04-01T04:48:09;2.77;;;0.87;;
30472;SDS011;17263;48.160;11.452;2023-04-01T04:50:36;2.30;;;1.03;;
30472;SDS011;17263;48.160;11.452;2023-04-01T04:53:02;2.20;;;0.97;;
30472;SDS011;17263;48.160;11.452;2023-04-01T04:55:28;2.27;;;0.60;;
30472;SDS011;17263;48.160;11.452;2023-04-01T04:57:54;1.37;;;0.70;;
30472;SDS011;17263;48.160;11.452;2023-04-01T05:00:20;1.67;;;0.70;;
30472;SDS011;17263;48.160;11.452;2023-04-01T05:02:46;0.90;;;0.63;;
30472;SDS011;17263;48.160;11.452;2023-04-01T05:05:12;1.40;;;0.87;;
30472;SDS011;17263;48.160;11.452;2023-04-01T05:07:39;2.03;;;0.77;;
30472;SDS011;17263;48.160;11.452;2023-04-01T05:10:05;1.50;;;0.60;;
30472;SDS011;17263;48.160;11.452;2023-04-01T05:12:31;1.30;;;0.67;;
30472;SDS011;17263;48.160;11.452;2023-04-01T05:15:02;1.30;;;0.63;;
30472;SDS011;17263;48.160;11.452;2023-04-01T05:17:29;2.07;;;0.50;;
30472;SDS011;17263;48.160;11.452;2023-04-01T05:19:56;1.70;;;0.90;;
30472;SDS011;17263;48.160;11.452;2023-04-01T05:22:22;0.93;;;0.60;;
30472;SDS011;17263;48.160;11.452;2023-04-01T05:24:48;1.33;;;0.53;;
30472;SDS011;17263;48.160;11.452;2023-04-01T05:27:15;1.10;;;0.60;;
30472;SDS011;17263;48.160;11.452;2023-04-01T05:29:41;2.83;;;0.60;;
30472;SDS011;17263;48.160;11.452;2023-04-01T05:32:07;1.53;;;0.60;;
30472;SDS011;17263;48.160;11.452;2023-04-01T05:34:33;2.13;;;0.50;;
30472;SDS011;17263;48.160;11.452;2023-04-01T05:36:59;3.70;;;0.60;;
30472;SDS011;17263;48.160;11.452;2023-04-01T05:39:25;0.77;;;0.60;;
30472;SDS011;17263;48.160;11.452;2023-04-01T05:41:51;1.93;;;0.70;;
30472;SDS011;17263;48.160;11.452;2023-04-01T05:44:17;2.83;;;1.23;;
30472;SDS011;17263;48.160;11.452;2023-04-01T05:46:43;2.50;;;0.90;;
30472;SDS011;17263;48.160;11.452;2023-04-01T05:49:09;1.50;;;0.57;;
30472;SDS011;17263;48.160;11.452;2023-04-01T05:51:35;1.33;;;0.80;;
30472;SDS011;17263;48.160;11.452;2023-04-01T05:54:01;1.80;;;0.67;;
30472;SDS011;17263;48.160;11.452;2023-04-01T05:56:30;1.07;;;0.70;;
30472;SDS011;17263;48.160;11.452;2023-04-01T05:58:56;1.73;;;0.70;;
30472;SDS011;17263;48.160;11.452;2023-04-01T06:01:22;1.33;;;0.90;;
30472;SDS011;17263;48.160;11.452;2023-04-01T06:03:48;2.50;;;0.73;;
30472;SDS011;17263;48.160;11.452;2023-04-01T06:06:23;2.37;;;0.90;;
30472;SDS011;17263;48.160;11.452;2023-04-01T06:08:51;2.17;;;0.80;;
30472;SDS011;17263;48.160;11.452;2023-04-01T06:11:21;2.27;;;0.80;;
30472;SDS011;17263;48.160;11.452;2023-04-01T06:14:21;1.87;;;0.87;;
30472;SDS011;17263;48.160;11.452;2023-04-01T06:17:19;2.63;;;0.70;;
30472;SDS011;17263;48.160;11.452;2023-04-01T06:20:07;2.60;;;1.03;;
30472;SDS011;17263;48.160;11.452;2023-04-01T06:31:16;2.33;;;0.83;;
30472;SDS011;17263;48.160;11.452;2023-04-01T06:37:07;2.13;;;0.90;;
30472;SDS011;17263;48.160;11.452;2023-04-01T06:43:12;1.73;;;1.00;;
30472;SDS011;17263;48.160;11.452;2023-04-01T06:51:04;1.83;;;1.10;;
30472;SDS011;17263;48.160;11.452;2023-04-01T06:54:00;1.23;;;0.90;;
30472;SDS011;17263;48.160;11.452;2023-04-01T06:56:30;1.70;;;0.90;;
30472;SDS011;17263;48.160;11.452;2023-04-01T06:59:05;1.87;;;0.80;;
30472;SDS011;17263;48.160;11.452;2023-04-01T07:01:38;1.83;;;0.80;;
30472;SDS011;17263;48.160;11.452;2023-04-01T07:04:28;1.80;;;0.70;;
30472;SDS011;17263;48.160;11.452;2023-04-01T07:06:58;1.93;;;0.77;;
30472;SDS011;17263;48.160;11.452;2023-04-01T07:09:31;1.83;;;0.93;;
30472;SDS011;17263;48.160;11.452;2023-04-01T07:12:06;2.40;;;0.97;;
30472;SDS011;17263;48.160;11.452;2023-04-01T07:14:41;0.83;;;0.50;;
30472;SDS011;17263;48.160;11.452;2023-04-01T07:17:12;2.20;;;1.03;;
30472;SDS011;17263;48.160;11.452;2023-04-01T07:19:42;2.43;;;0.73;;
30472;SDS011;17263;48.160;11.452;2023-04-01T07:22:29;1.23;;;0.70;;
30472;SDS011;17263;48.160;11.452;2023-04-01T07:25:13;1.90;;;0.77;;
30472;SDS011;17263;48.160;11.452;2023-04-01T07:27:42;0.80;;;0.67;;
30472;SDS011;17263;48.160;11.452;2023-04-01T07:30:18;0.87;;;0.70;;
30472;SDS011;17263;48.160;11.452;2023-04-01T07:35:38;2.40;;;0.90;;
30472;SDS011;17263;48.160;11.452;2023-04-01T07:48:47;0.87;;;0.70;;
30472;SDS011;17263;48.160;11.452;2023-04-01T07:54:22;1.13;;;0.60;;
30472;SDS011;17263;48.160;11.452;2023-04-01T07:57:16;2.07;;;0.70;;
30472;SDS011;17263;48.160;11.452;2023-04-01T08:05:47;1.10;;;0.60;;
30472;SDS011;17263;48.160;11.452;2023-04-01T08:11:22;1.17;;;0.80;;
30472;SDS011;17263;48.160;11.452;2023-04-01T08:13:53;2.10;;;0.60;;
30472;SDS011;17263;48.160;11.452;2023-04-01T08:22:01;3.23;;;0.57;;
30472;SDS011;17263;48.160;11.452;2023-04-01T08:27:18;0.93;;;0.40;;
30472;SDS011;17263;48.160;11.452;2023-04-01T08:29:56;0.83;;;0.37;;
30472;SDS011;17263;48.160;11.452;2023-04-01T08:32:36;2.83;;;0.40;;
30472;SDS011;17263;48.160;11.452;2023-04-01T08:37:35;1.20;;;0.53;;
30472;SDS011;17263;48.160;11.452;2023-04-01T08:40:16;0.53;;;0.40;;
30472;SDS011;17263;48.160;11.452;2023-04-01T08:43:19;1.87;;;0.80;;
30472;SDS011;17263;48.160;11.452;2023-04-01T08:46:14;1.27;;;0.40;;
30472;SDS011;17263;48.160;11.452;2023-04-01T09:00:37;0.47;;;0.30;;
30472;SDS011;17263;48.160;11.452;2023-04-01T09:17:29;1.07;;;0.50;;
30472;SDS011;17263;48.160;11.452;2023-04-01T09:20:25;0.73;;;0.30;;
30472;SDS011;17263;48.160;11.452;2023-04-01T09:23:17;1.20;;;0.40;;
30472;SDS011;17263;48.160;11.452;2023-04-01T09:34:25;1.17;;;0.37;;
30472;SDS011;17263;48.160;11.452;2023-04-01T09:42:45;0.37;;;0.37;;
30472;SDS011;17263;48.160;11.452;2023-04-01T09:45:41;1.50;;;0.60;;
30472;SDS011;17263;48.160;11.452;2023-04-01T09:54:24;0.40;;;0.23;;
30472;SDS011;17263;48.160;11.452;2023-04-01T10:00:06;1.50;;;0.50;;
30472;SDS011;17263;48.160;11.452;2023-04-01T10:02:52;0.40;;;0.40;;
30472;SDS011;17263;48.160;11.452;2023-04-01T10:16:40;0.23;;;0.23;;
30472;SDS011;17263;48.160;11.452;2023-04-01T10:22:17;0.40;;;0.40;;
30472;SDS011;17263;48.160;11.452;2023-04-01T10:42:06;0.40;;;0.30;;
30472;SDS011;17263;48.160;11.452;2023-04-01T10:53:40;0.20;;;0.10;;
30472;SDS011;17263;48.160;11.452;2023-04-01T10:56:39;0.30;;;0.30;;
30472;SDS011;17263;48.160;11.452;2023-04-01T11:07:30;0.33;;;0.33;;
30472;SDS011;17263;48.160;11.452;2023-04-01T11:15:50;0.30;;;0.30;;
30472;SDS011;17263;48.160;11.452;2023-04-01T11:20:56;0.20;;;0.20;;
30472;SDS011;17263;48.160;11.452;2023-04-01T11:34:59;0.83;;;0.20;;
30472;SDS011;17263;48.160;11.452;2023-04-01T11:37:54;0.20;;;0.20;;
30472;SDS011;17263;48.160;11.452;2023-04-01T11:43:00;1.00;;;0.40;;
30472;SDS011;17263;48.160;11.452;2023-04-01T11:45:53;0.07;;;0.07;;
30472;SDS011;17263;48.160;11.452;2023-04-01T11:48:39;0.10;;;0.10;;
30472;SDS011;17263;48.160;11.452;2023-04-01T11:57:04;0.20;;;0.20;;
30472;SDS011;17263;48.160;11.452;2023-04-01T11:59:54;0.20;;;0.20;;
30472;SDS011;17263;48.160;11.452;2023-04-01T12:02:34;0.40;;;0.30;;
30472;SDS011;17263;48.160;11.452;2023-04-01T12:05:37;0.30;;;0.30;;
30472;SDS011;17263;48.160;11.452;2023-04-01T12:11:50;0.30;;;0.13;;
30472;SDS011;17263;48.160;11.452;2023-04-01T12:16:44;1.13;;;0.30;;
30472;SDS011;17263;48.160;11.452;2023-04-01T12:25:04;0.27;;;0.20;;
30472;SDS011;17263;48.160;11.452;2023-04-01T12:27:38;0.30;;;0.30;;
30472;SDS011;17263;48.160;11.452;2023-04-01T12:33:20;0.27;;;0.27;;
30472;SDS011;17263;48.160;11.452;2023-04-01T12:41:57;0.37;;;0.37;;
30472;SDS011;17263;48.160;11.452;2023-04-01T12:44:43;1.43;;;0.60;;
30472;SDS011;17263;48.160;11.452;2023-04-01T12:50:27;0.60;;;0.60;;
30472;SDS011;17263;48.160;11.452;2023-04-01T12:53:11;0.80;;;0.53;;
30472;SDS011;17263;48.160;11.452;2023-04-01T12:55:51;0.90;;;0.50;;
30472;SDS011;17263;48.160;11.452;2023-04-01T13:14:58;0.63;;;0.50;;
30472;SDS011;17263;48.160;11.452;2023-04-01T13:20:32;1.73;;;0.80;;
30472;SDS011;17263;48.160;11.452;2023-04-01T13:26:00;0.93;;;0.80;;
30472;SDS011;17263;48.160;11.452;2023-04-01T13:33:47;0.70;;;0.70;;
30472;SDS011;17263;48.160;11.452;2023-04-01T13:39:40;0.50;;;0.50;;
30472;SDS011;17263;48.160;11.452;2023-04-01T13:55:34;0.37;;;0.37;;
30472;SDS011;17263;48.160;11.452;2023-04-01T14:04:20;0.60;;;0.60;;
30472;SDS011;17263;48.160;11.452;2023-04-01T14:12:38;0.97;;;0.80;;
30472;SDS011;17263;48.160;11.452;2023-04-01T14:15:18;0.53;;;0.53;;
30472;SDS011;17263;48.160;11.452;2023-04-01T14:34:59;0.87;;;0.63;;
30472;SDS011;17263;48.160;11.452;2023-04-01T14:37:58;0.40;;;0.40;;
30472;SDS011;17263;48.160;11.452;2023-04-01T14:43:21;0.93;;;0.60;;
30472;SDS011;17263;48.160;11.452;2023-04-01T14:45:55;0.63;;;0.63;;
30472;SDS011;17263;48.160;11.452;2023-04-01T14:56:43;1.10;;;0.80;;
30472;SDS011;17263;48.160;11.452;2023-04-01T14:59:14;0.87;;;0.80;;
30472;SDS011;17263;48.160;11.452;2023-04-01T15:01:55;0.80;;;0.70;;
30472;SDS011;17263;48.160;11.452;2023-04-01T15:15:49;1.00;;;0.60;;
30472;SDS011;17263;48.160;11.452;2023-04-01T15:18:48;0.60;;;0.60;;
30472;SDS011;17263;48.160;11.452;2023-04-01T15:26:54;1.03;;;0.50;;
30472;SDS011;17263;48.160;11.452;2023-04-01T15:32:39;0.40;;;0.27;;
30472;SDS011;17263;48.160;11.452;2023-04-01T15:38:38;0.70;;;0.40;;
30472;SDS011;17263;48.160;11.452;2023-04-01T15:41:15;0.67;;;0.53;;
30472;SDS011;17263;48.160;11.452;2023-04-01T15:43:48;3.73;;;0.50;;
30472;SDS011;17263;48.160;11.452;2023-04-01T15:46:20;0.40;;;0.40;;
30472;SDS011;17263;48.160;11.452;2023-04-01T16:08:20;0.50;;;0.50;;
30472;SDS011;17263;48.160;11.452;2023-04-01T16:11:18;0.30;;;0.30;;
30472;SDS011;17263;48.160;11.452;2023-04-01T16:35:43;0.97;;;0.87;;
30472;SDS011;17263;48.160;11.452;2023-04-01T16:38:25;1.37;;;0.60;;
30472;SDS011;17263;48.160;11.452;2023-04-01T16:41:16;0.37;;;0.37;;
30472;SDS011;17263;48.160;11.452;2023-04-01T16:43:49;1.30;;;0.80;;
30472;SDS011;17263;48.160;11.452;2023-04-01T16:46:33;1.53;;;0.70;;
30472;SDS011;17263;48.160;11.452;2023-04-01T16:52:12;1.17;;;0.50;;
30472;SDS011;17263;48.160;11.452;2023-04-01T16:54:55;1.03;;;0.80;;
30472;SDS011;17263;48.160;11.452;2023-04-01T16:57:43;0.70;;;0.70;;
30472;SDS011;17263;48.160;11.452;2023-04-01T17:00:30;0.40;;;0.40;;
30472;SDS011;17263;48.160;11.452;2023-04-01T17:03:08;0.47;;;0.47;;
30472;SDS011;17263;48.160;11.452;2023-04-01T17:05:52;0.80;;;0.73;;
30472;SDS011;17263;48.160;11.452;2023-04-01T17:11:39;0.80;;;0.53;;
30472;SDS011;17263;48.160;11.452;2023-04-01T17:18:11;1.57;;;0.60;;
30472;SDS011;17263;48.160;11.452;2023-04-01T17:20:41;0.50;;;0.50;;
30472;SDS011;17263;48.160;11.452;2023-04-01T17:28:50;1.77;;;0.70;;
30472;SDS011;17263;48.160;11.452;2023-04-01T17:34:09;1.13;;;0.80;;
30472;SDS011;17263;48.160;11.452;2023-04-01T17:40:00;0.60;;;0.60;;
30472;SDS011;17263;48.160;11.452;2023-04-01T17:48:17;0.70;;;0.67;;
30472;SDS011;17263;48.160;11.452;2023-04-01T17:53:36;0.43;;;0.43;;
30472;SDS011;17263;48.160;11.452;2023-04-01T17:58:58;1.20;;;0.80;;
30472;SDS011;17263;48.160;11.452;2023-04-01T18:12:52;1.37;;;1.03;;
30472;SDS011;17263;48.160;11.452;2023-04-01T18:15:58;1.33;;;1.23;;
30472;SDS011;17263;48.160;11.452;2023-04-01T18:24:42;1.43;;;0.87;;
30472;SDS011;17263;48.160;11.452;2023-04-01T18:27:41;1.40;;;1.13;;
30472;SDS011;17263;48.160;11.452;2023-04-01T18:30:15;0.70;;;0.70;;
30472;SDS011;17263;48.160;11.452;2023-04-01T18:33:01;1.33;;;1.00;;
30472;SDS011;17263;48.160;11.452;2023-04-01T18:38:31;1.40;;;0.80;;
30472;SDS011;17263;48.160;11.452;2023-04-01T18:41:14;0.77;;;0.73;;
30472;SDS011;17263;48.160;11.452;2023-04-01T18:46:40;1.23;;;0.60;;
30472;SDS011;17263;48.160;11.452;2023-04-01T18:49:13;0.90;;;0.70;;
30472;SDS011;17263;48.160;11.452;2023-04-01T19:00:48;1.50;;;1.00;;
30472;SDS011;17263;48.160;11.452;2023-04-01T19:03:25;1.23;;;1.10;;
30472;SDS011;17263;48.160;11.452;2023-04-01T19:06:17;0.90;;;0.77;;
30472;SDS011;17263;48.160;11.452;2023-04-01T19:08:49;0.77;;;0.73;;
30472;SDS011;17263;48.160;11.452;2023-04-01T19:11:37;0.70;;;0.70;;
30472;SDS011;17263;48.160;11.452;2023-04-01T19:14:19;2.13;;;0.90;;
30472;SDS011;17263;48.160;11.452;2023-04-01T19:17:26;1.90;;;0.60;;
30472;SDS011;17263;48.160;11.452;2023-04-01T19:23:31;2.10;;;0.80;;
30472;SDS011;17263;48.160;11.452;2023-04-01T19:26:05;1.80;;;0.93;;
30472;SDS011;17263;48.160;11.452;2023-04-01T19:36:48;1.50;;;1.10;;
30472;SDS011;17263;48.160;11.452;2023-04-01T19:39:39;1.43;;;1.03;;
30472;SDS011;17263;48.160;11.452;2023-04-01T19:42:25;0.87;;;0.87;;
30472;SDS011;17263;48.160;11.452;2023-04-01T19:47:41;1.10;;;0.97;;
30472;SDS011;17263;48.160;11.452;2023-04-01T19:50:40;2.13;;;1.20;;
30472;SDS011;17263;48.160;11.452;2023-04-01T19:56:18;0.97;;;0.90;;
30472;SDS011;17263;48.160;11.452;2023-04-01T20:01:34;1.23;;;0.80;;
30472;SDS011;17263;48.160;11.452;2023-04-01T20:04:14;1.13;;;0.83;;
30472;SDS011;17263;48.160;11.452;2023-04-01T20:14:41;2.07;;;1.30;;
30472;SDS011;17263;48.160;11.452;2023-04-01T20:17:32;1.43;;;1.10;;
30472;SDS011;17263;48.160;11.452;2023-04-01T20:25:16;1.53;;;0.90;;
30472;SDS011;17263;48.160;11.452;2023-04-01T20:27:56;0.97;;;0.93;;
30472;SDS011;17263;48.160;11.452;2023-04-01T20:39:25;1.10;;;1.00;;
30472;SDS011;17263;48.160;11.452;2023-04-01T20:51:20;1.13;;;1.03;;
30472;SDS011;17263;48.160;11.452;2023-04-01T20:57:05;2.03;;;1.00;;
30472;SDS011;17263;48.160;11.452;2023-04-01T20:59:52;1.53;;;0.90;;
30472;SDS011;17263;48.160;11.452;2023-04-01T21:02:32;0.80;;;0.80;;
30472;SDS011;17263;48.160;11.452;2023-04-01T21:16:19;0.70;;;0.70;;
30472;SDS011;17263;48.160;11.452;2023-04-01T21:24:56;1.17;;;1.07;;
30472;SDS011;17263;48.160;11.452;2023-04-01T21:38:59;3.43;;;1.17;;
30472;SDS011;17263;48.160;11.452;2023-04-01T21:52:54;2.67;;;2.13;;
30472;SDS011;17263;48.160;11.452;2023-04-01T22:01:32;0.63;;;0.63;;
30472;SDS011;17263;48.160;11.452;2023-04-01T22:12:40;1.27;;;0.60;;
30472;SDS011;17263;48.160;11.452;2023-04-01T22:24:15;1.00;;;0.80;;
30472;SDS011;17263;48.160;11.452;2023-04-01T22:27:00;0.70;;;0.70;;
30472;SDS011;17263;48.160;11.452;2023-04-01T22:29:38;0.70;;;0.70;;
30472;SDS011;17263;48.160;11.452;2023-04-01T22:32:31;1.47;;;0.90;;
30472;SDS011;17263;48.160;11.452;2023-04-01T22:43:36;1.63;;;0.90;;
30472;SDS011;17263;48.160;11.452;2023-04-01T22:46:14;1.00;;;0.77;;
30472;SDS011;17263;48.160;11.452;2023-04-01T22:49:18;0.87;;;0.80;;
30472;SDS011;17263;48.160;11.452;2023-04-01T22:52:37;0.90;;;0.70;;
30472;SDS011;17263;48.160;11.452;2023-04-01T22:54:56;1.20;;;0.70;;
30472;SDS011;17263;48.160;11.452;2023-04-01T23:00:06;1.03;;;0.93;;
30472;SDS011;17263;48.160;11.452;2023-04-01T23:03:14;0.60;;;0.60;;
30472;SDS011;17263;48.160;11.452;2023-04-01T23:05:49;0.70;;;0.67;;
30472;SDS011;17263;48.160;11.452;2023-04-01T23:14:22;2.27;;;0.70;;
30472;SDS011;17263;48.160;11.452;2023-04-01T23:16:46;2.53;;;1.00;;
30472;SDS011;17263;48.160;11.452;2023-04-01T23:19:35;1.50;;;1.00;;
30472;SDS011;17263;48.160;11.452;2023-04-01T23:23:11;1.27;;;0.80;;
30472;SDS011;17263;48.160;11.452;2023-04-01T23:33:11;1.57;;;0.90;;
30472;SDS011;17263;48.160;11.452;2023-04-01T23:36:02;0.63;;;0.63;;
30472;SDS011;17263;48.160;11.452;2023-04-01T23:38:40;0.83;;;0.70;;
30472;SDS011;17263;48.160;11.452;2023-04-01T23:41:08;1.00;;;0.80;;
30472;SDS011;17263;48.160;11.452;2023-04-01T23:43:50;1.33;;;0.70;;
30472;SDS011;17263;48.160;11.452;2023-04-01T23:46:30;0.83;;;0.67;;
30472;SDS011;17263;48.160;11.452;2023-04-01T23:48:59;0.70;;;0.70;;
30472;SDS011;17263;48.160;11.452;2023-04-01T23:51:27;0.63;;;0.60;;
30472;SDS011;17263;48.160;11.452;2023-04-01T23:54:03;0.57;;;0.50;;
30472;SDS011;17263;48.160;11.452;2023-04-01T23:56:51;1.37;;;0.80;;
30472;SDS011;17263;48.160;11.452;2023-04-01T23:59:24;1.27;;;0.63;;
